Station: Laverton

  Atmospheric Gas Attenuation - ITU Rec 676-11   --------------- db/100km ---------------
Date Time Temp RH % AH g/m3 Dew Point Wind Direction Speed kph Gust kph Barometer mB Rainfall Since 9am 24GHz 47GHz 76GHz 122GHz 134GHz 241GHz
04 05:00 5 69 4.69 -0.2 11 13 1008.4 0 11.6 21.9 28.0 72.8 56.1 189.1
04 04:50 5.1 70 4.79 0.1 11 13 1009 0 11.8 22.0 28.3 73.8 57.3 193.4
04 04:40 5.1 68 4.65 -0.3 11 11 1009.1 0 11.5 21.8 27.8 72.4 55.6 187.2
04 04:30 5 68 4.62 -0.4 9 11 1008.5 0 11.4 21.8 27.7 72.1 55.2 186.0
04 04:20 4.6 66 4.37 -1.2 7 9 1009.1 0 10.9 21.5 26.9 70.0 52.4 175.9
04 04:10 4.4 65 4.25 -1.6 9 11 1009.1 0 10.6 21.3 26.5 68.9 51.0 171.1
04 04:00 4 64 4.07 -2.2 9 9 1008.5 0 10.3 21.1 25.9 67.4 49.0 163.9
04 03:40 4.4 61 3.99 -2.4 11 11 1009.1 0 10.1 21.0 25.5 66.3 47.8 159.7
04 03:30 4.7 61 4.07 -2.2 0 0 1008.6 0 10.2 21.0 25.7 66.8 48.6 162.5
04 03:20 5.4 64 4.47 -0.8 0 0 1009.3 0 11.1 21.5 27.0 70.3 53.1 178.6
04 03:10 4.9 61 4.12 -2 0 0 1009.3 0 10.3 21.0 25.9 67.2 49.1 164.4
04 03:00 5 64 4.35 -1.2 0 0 1008.7 0 10.8 21.3 26.7 69.4 51.9 174.1
04 02:50 5.1 60 4.11 -2 0 0 1009.5 0 10.3 21.0 25.8 66.9 48.9 163.6
04 02:40 5.5 59 4.15 -1.9 0 0 1009.4 0 10.4 21.0 25.8 67.0 49.1 164.5
04 02:30 5.5 60 4.22 -1.6 0 0 1008.9 0 10.5 21.0 26.0 67.7 49.9 167.4
04 02:20 5.7 59 4.2 -1.7 0 0 1009.5 0 10.5 21.0 25.9 67.3 49.6 166.2
04 02:10 5.8 63 4.52 -0.7 0 0 1009.5 0 11.2 21.4 27.1 70.4 53.5 179.9
04 02:00 6.1 64 4.68 -0.2 0 0 1009 0 11.5 21.6 27.6 71.7 55.2 186.1
04 01:50 6.5 65 4.88 0.4 0 0 1009.6 0 11.9 21.8 28.2 73.4 57.5 194.1
04 01:30 6.6 56 4.23 -1.5 0 0 1009.3 0 10.5 20.8 25.7 66.9 49.4 165.6
04 01:20 7.1 56 4.37 -1.1 0 0 1010.1 0 10.8 20.9 26.1 67.9 50.8 170.7
04 01:10 7.1 60 4.68 -0.1 0 0 1010.1 0 11.5 21.4 27.3 70.9 54.6 184.0
04 01:00 7.2 57 4.48 -0.7 0 0 1009.5 0 11.0 21.1 26.5 68.8 52.0 175.1
04 00:50 7.5 56 4.48 -0.7 0 0 1010.4 0 11.0 21.0 26.4 68.6 51.9 174.6
04 00:40 8 56 4.63 -0.2 0 0 1010.4 0 11.3 21.1 26.8 69.7 53.4 179.9
04 00:30 8.6 56 4.81 0.3 0 6 1009.9 0 11.7 21.2 27.2 70.9 55.1 186.1
04 00:20 9.4 58 5.25 1.6 4 6 1010.5 0 12.6 21.7 28.6 74.5 59.9 203.1
04 00:10 9.8 58 5.38 1.9 4 6 1010.5 0 12.9 21.8 28.9 75.5 61.2 207.7
04 00:00 10.2 57 5.43 2.1 6 6 1010 0 13.0 21.8 29.0 75.5 61.5 208.7
03 23:50 10.6 54 5.27 1.7 4 6 1010.5 0 12.6 21.5 28.3 73.6 59.3 201.0
03 23:40 10.9 55 5.47 2.2 7 7 1010.5 0 13.0 21.7 28.9 75.3 61.5 208.7
03 23:30 11.2 54 5.47 2.2 7 11 1009.8 0 13.0 21.6 28.8 75.0 61.2 207.8
03 23:20 11.4 54 5.54 2.4 9 9 1010.5 0 13.2 21.7 29.0 75.5 61.9 210.4
03 23:10 11.6 53 5.51 2.4 9 11 1010.6 0 13.1 21.6 28.8 75.0 61.4 208.6
03 23:00 11.9 53 5.61 2.6 11 13 1010.1 0 13.3 21.7 29.0 75.7 62.4 212.0
03 22:50 12.2 52 5.61 2.6 11 13 1010.7 0 13.3 21.6 28.9 75.5 62.2 211.3
03 22:40 12.3 51 5.54 2.5 11 13 1010.8 0 13.1 21.5 28.7 74.7 61.3 208.1
03 22:30 12.5 51 5.61 2.7 13 17 1010.2 0 13.3 21.5 28.8 75.1 61.9 210.4
03 22:20 12.7 51 5.68 2.8 13 15 1010.7 0 13.4 21.6 29.0 75.7 62.6 212.9
03 22:10 12.8 50 5.6 2.6 13 15 1010.7 0 13.2 21.5 28.7 74.8 61.6 209.3
03 22:00 13 50 5.67 2.8 17 22 1010.2 0 13.4 21.5 28.9 75.3 62.2 211.6
03 21:50 13.2 49 5.63 2.7 13 15 1010.8 0 13.3 21.4 28.7 74.7 61.6 209.5
03 21:40 13.4 48 5.58 2.6 20 22 1010.7 0 13.2 21.3 28.4 74.1 60.9 206.9
03 21:30 13.6 49 5.77 3.1 19 26 1009.9 0 13.6 21.5 29.0 75.6 62.9 214.1
03 21:20 13.9 49 5.87 3.4 24 28 1010.5 0 13.8 21.6 29.3 76.4 63.9 217.6
03 21:10 14 49 5.91 3.5 19 20 1010.5 0 13.9 21.6 29.4 76.6 64.3 219.0
03 21:00 14.2 49 5.98 3.7 24 32 1009.8 0 14.0 21.6 29.5 77.1 64.9 221.2
03 20:50 14.5 48 5.97 3.6 28 33 1010.3 0 14.0 21.6 29.4 76.7 64.6 220.1
03 20:40 14.8 46 5.83 3.3 26 33 1010.4 0 13.7 21.3 28.8 75.1 62.7 213.6
03 20:30 15.1 43 5.55 2.6 26 35 1009.7 0 13.1 20.8 27.7 72.2 59.2 201.3
03 20:20 15.5 39 5.16 1.6 22 24 1010.2 0 12.2 20.2 26.2 68.3 54.5 184.8
03 20:10 15.7 38 5.08 1.4 17 22 1010.1 0 12.0 20.0 25.9 67.4 53.5 181.2
03 20:00 16 36 4.9 1 19 30 1009.3 0 11.7 19.7 25.2 65.4 51.2 173.4
03 19:50 16.6 34 4.8 0.7 20 22 1010 0 11.4 19.5 24.7 64.1 49.8 168.4
03 19:40 16.9 33 4.75 0.5 19 22 1009.8 0 11.3 19.3 24.4 63.4 49.1 165.8
03 19:30 17.1 32 4.66 0.3 17 24 1009.1 0 11.1 19.2 24.1 62.5 47.9 161.9
03 19:20 17.4 31 4.59 0.1 19 20 1009.5 0 11.0 19.0 23.8 61.6 47.0 158.7
03 19:10 17.6 30 4.5 -0.2 19 22 1009.4 0 10.8 18.9 23.4 60.7 46.0 154.9
03 19:00 17.9 29 4.43 -0.4 17 24 1008.7 0 10.6 18.7 23.1 59.8 45.0 151.7
03 18:50 17.9 28 4.27 -0.8 15 17 1009.2 0 10.3 18.5 22.6 58.5 43.3 145.8
03 18:40 18.1 28 4.33 -0.7 15 17 1009 0 10.4 18.5 22.7 58.9 43.9 147.6
03 18:30 18.3 27 4.22 -1 15 19 1008.3 0 10.2 18.3 22.3 57.7 42.6 143.1
03 18:20 18.5 26 4.11 -1.3 13 15 1008.7 0 9.9 18.2 21.9 56.7 41.3 138.8
03 18:10 19 26 4.24 -0.9 17 19 1008.6 0 10.2 18.2 22.2 57.5 42.4 142.7
03 18:00 19.3 25 4.15 -1.2 17 24 1007.9 0 10.0 18.0 21.8 56.4 41.3 138.9
03 17:50 19.4 24 4 -1.7 15 17 1008.4 0 9.7 17.8 21.3 55.2 39.8 133.4
03 17:40 19.8 24 4.1 -1.3 20 24 1008.2 0 9.9 17.9 21.5 55.7 40.6 136.3
03 17:30 19.9 23 3.95 -1.8 22 32 1007.4 0 9.6 17.6 21.0 54.4 39.0 130.7
03 17:20 20.3 23 4.04 -1.5 19 22 1008.1 0 9.7 17.7 21.2 54.9 39.7 133.3
03 17:10 20.7 23 4.14 -1.2 28 32 1008 0 9.9 17.8 21.4 55.4 40.5 136.2
03 17:00 21.2 23 4.26 -0.7 26 37 1007.2 0 10.2 17.8 21.6 56.0 41.5 139.6
03 16:50 21.8 22 4.22 -0.8 17 20 1007.8 0 10.1 17.6 21.4 55.3 40.8 137.3
03 16:40 22.3 21 4.15 -1.1 22 26 1007.6 0 9.9 17.5 21.0 54.4 39.9 134.0
03 16:30 22.6 21 4.22 -0.8 24 35 1006.8 0 10.0 17.5 21.1 54.8 40.4 135.8
03 16:20 23 20 4.11 -1.1 24 30 1007.5 0 9.8 17.3 20.7 53.7 39.1 131.5
03 16:10 22.9 20 4.09 -1.2 26 32 1007.5 0 9.8 17.3 20.7 53.6 39.0 131.0
03 16:00 23.3 19 3.97 -1.6 28 41 1006.7 0 9.5 17.0 20.2 52.3 37.6 126.1
03 15:50 23.3 19 3.97 -1.6 30 37 1007.2 0 9.5 17.1 20.2 52.4 37.6 126.2
03 15:40 23.7 18 3.85 -2 28 32 1007.2 0 9.2 16.8 19.8 51.2 36.3 121.5
03 15:30 23.7 17 3.64 -2.8 32 46 1006.6 0 8.8 16.6 19.2 49.5 34.3 114.4
03 15:20 23.9 17 3.68 -2.6 32 37 1007.2 0 8.9 16.6 19.3 49.7 34.6 115.5
03 15:10 24.3 17 3.76 -2.3 30 35 1007.2 0 9.0 16.6 19.4 50.1 35.2 117.7
03 15:00 23.7 20 4.28 -0.6 26 37 1006.5 0 10.1 17.3 21.0 54.5 40.4 136.1
03 14:50 24 19 4.13 -1 17 20 1007.1 0 9.8 17.1 20.5 53.2 38.8 130.6
03 14:40 23.8 20 4.3 -0.5 20 26 1007.1 0 10.2 17.4 21.1 54.6 40.6 136.7
03 14:30 24.6 20 4.5 0.2 24 35 1006.6 0 10.6 17.4 21.5 55.7 42.1 142.2
03 14:20 23.5 19 4.02 -1.4 33 39 1007.3 0 9.6 17.1 20.3 52.6 38.0 127.6
03 14:10 23.6 19 4.04 -1.3 19 22 1007.5 0 9.6 17.1 20.4 52.7 38.2 128.2
03 14:00 23.8 19 4.09 -1.2 26 39 1006.9 0 9.7 17.1 20.5 53.0 38.5 129.5
03 13:50 23.8 21 4.52 0.2 26 32 1007.6 0 10.6 17.6 21.8 56.4 42.8 144.4
03 13:40 23.8 22 4.73 0.8 19 22 1007.6 0 11.1 17.9 22.4 58.1 44.8 151.7
03 13:30 24 21 4.57 0.4 19 35 1007 0 10.7 17.6 21.8 56.6 43.1 145.7
03 13:20 23.3 22 4.6 0.4 20 24 1008 0 10.8 17.8 22.1 57.4 43.8 148.1
03 13:10 23.2 22 4.57 0.3 19 26 1008.1 0 10.8 17.8 22.1 57.2 43.6 147.2
03 13:00 23.1 22 4.55 0.2 26 35 1007.6 0 10.7 17.8 22.0 57.1 43.4 146.6
03 12:50 22.9 22 4.5 0.1 30 37 1008.4 0 10.6 17.8 21.9 56.9 43.1 145.3
03 12:40 23.1 23 4.75 0.9 26 30 1008.6 0 11.1 18.1 22.7 58.8 45.5 153.8
03 12:30 23.3 23 4.81 1 22 35 1008.1 0 11.2 18.1 22.8 59.1 45.9 155.5
03 12:20 23.1 23 4.75 0.9 24 32 1008.9 0 11.1 18.1 22.7 58.8 45.5 153.8
03 12:10 23.1 22 4.55 0.2 28 37 1009.1 0 10.7 17.8 22.1 57.2 43.5 146.8

Last Refresh: 04-Aug-2020 06:40:40

Most of the information presented on this site is sourced from the Bureau of Meteorology.  Copyright in all material sourced from the Bureau of Meteorology resides with the Commonwealth of Australia.